createdAt,value
2022-08-21T00:04:20.812Z,16
2022-08-21T00:10:10.780Z,15.9
2022-08-21T00:15:52.679Z,15.8
2022-08-21T00:21:36.274Z,15.7
2022-08-21T00:27:17.009Z,15.6
2022-08-21T00:32:57.278Z,15.6
2022-08-21T00:38:39.258Z,15.5
2022-08-21T00:44:19.499Z,15.4
2022-08-21T00:49:59.595Z,15.4
2022-08-21T00:55:39.568Z,15.3
2022-08-21T01:01:20.105Z,15.4
2022-08-21T01:07:01.257Z,15.4
2022-08-21T01:12:41.411Z,15.4
2022-08-21T01:18:21.672Z,15.4
2022-08-21T01:24:02.139Z,15.4
2022-08-21T01:29:42.590Z,15.4
2022-08-21T01:35:22.814Z,15.5
2022-08-21T01:41:02.907Z,15.5
2022-08-21T01:46:43.040Z,15.4
2022-08-21T01:52:23.508Z,15.4
2022-08-21T01:58:03.557Z,15.4
2022-08-21T02:03:43.643Z,15.4
2022-08-21T02:09:24.392Z,15.2
2022-08-21T02:15:07.956Z,15
2022-08-21T02:20:48.217Z,14.9
2022-08-21T02:26:35.193Z,14.9
2022-08-21T02:32:15.825Z,14.8
2022-08-21T02:37:56.251Z,14.9
2022-08-21T02:43:36.273Z,14.7
2022-08-21T02:49:16.451Z,14.6
2022-08-21T02:54:56.601Z,14.6
2022-08-21T03:00:36.873Z,14.5
2022-08-21T03:06:17.155Z,14.4
2022-08-21T03:11:57.333Z,14.5
2022-08-21T03:17:37.651Z,14.5
2022-08-21T03:23:18.568Z,14.5
2022-08-21T03:29:00.072Z,14.4
2022-08-21T03:34:40.978Z,14.4
2022-08-21T03:40:21.441Z,14.5
2022-08-21T03:46:01.636Z,14.4
2022-08-21T03:51:41.798Z,14.3
2022-08-21T03:57:21.796Z,14.1
2022-08-21T04:03:01.850Z,14.1
2022-08-21T04:08:42.441Z,14
2022-08-21T04:14:22.896Z,13.9
2022-08-21T04:20:03.108Z,13.9
2022-08-21T04:25:43.191Z,13.8
2022-08-21T04:31:25.933Z,13.8
2022-08-21T04:37:06.636Z,13.8
2022-08-21T04:42:46.888Z,13.7
2022-08-21T04:48:27.244Z,13.8
2022-08-21T04:54:07.548Z,13.9
2022-08-21T04:59:47.767Z,13.9
2022-08-21T05:05:27.926Z,14.1
2022-08-21T05:11:08.390Z,14.3
2022-08-21T05:16:48.794Z,14.4
2022-08-21T05:22:28.880Z,14.4
2022-08-21T05:28:09.240Z,14.8
2022-08-21T05:33:49.825Z,15
2022-08-21T05:40:05.460Z,15.1
2022-08-21T05:46:06.715Z,15.7
2022-08-21T05:51:47.293Z,17.5
2022-08-21T05:57:28.202Z,19.5
2022-08-21T06:03:08.644Z,20.6
2022-08-21T06:08:49.160Z,21.3
2022-08-21T06:14:29.408Z,22.2
2022-08-21T06:20:10.036Z,23.4
2022-08-21T06:25:50.430Z,23.6
2022-08-21T06:31:31.059Z,24.6
2022-08-21T06:37:11.170Z,24.9
2022-08-21T06:42:51.267Z,25.6
2022-08-21T06:48:31.910Z,25.5
2022-08-21T06:54:12.119Z,25.1
2022-08-21T06:59:52.392Z,24.5
2022-08-21T07:05:32.933Z,25.4
2022-08-21T07:11:13.583Z,25.4
2022-08-21T07:16:53.815Z,25.8
2022-08-21T07:22:38.136Z,27.1
2022-08-21T07:28:18.072Z,26.2
2022-08-21T07:33:58.431Z,26.6
2022-08-21T07:39:38.869Z,27.7
2022-08-21T07:45:19.666Z,27.9
2022-08-21T07:50:59.573Z,27.6
2022-08-21T07:56:43.687Z,26.8
2022-08-21T08:02:23.646Z,26.6
2022-08-21T08:08:04.468Z,27.4
2022-08-21T08:13:44.615Z,26.6
2022-08-21T08:19:24.763Z,26.6
2022-08-21T08:25:09.236Z,27.5
2022-08-21T08:30:56.219Z,27.8
2022-08-21T08:36:36.584Z,28
2022-08-21T08:42:32.521Z,27.4
2022-08-21T08:48:18.573Z,27
2022-08-21T08:54:01.332Z,27.3
2022-08-21T08:59:46.894Z,26.9
2022-08-21T09:05:27.768Z,28.8
2022-08-21T09:11:07.831Z,27.6
2022-08-21T09:16:50.526Z,28.6
2022-08-21T09:22:34.170Z,28
2022-08-21T09:28:17.330Z,29.5
2022-08-21T09:34:18.517Z,28.6
2022-08-21T09:40:10.805Z,27.8
2022-08-21T09:45:50.776Z,28.5
2022-08-21T09:51:40.927Z,29.4
2022-08-21T09:57:24.165Z,27.8
2022-08-21T10:03:05.105Z,27.9
2022-08-21T10:08:45.711Z,28.7
2022-08-21T10:14:27.487Z,27.7
2022-08-21T10:20:08.487Z,27.3
2022-08-21T10:25:50.414Z,27.7
2022-08-21T10:31:55.458Z,27.3
2022-08-21T10:43:02.053Z,30.2
2022-08-21T10:48:42.468Z,28.5
2022-08-21T10:54:25.013Z,29.6
2022-08-21T11:00:06.524Z,29.2
2022-08-21T11:05:50.593Z,29.4
2022-08-21T11:11:36.079Z,30.2
2022-08-21T11:17:20.159Z,29.4
2022-08-21T11:23:03.862Z,31.3
2022-08-21T11:28:48.007Z,31.9
2022-08-21T11:34:35.203Z,30.1
2022-08-21T11:40:15.562Z,31.2
2022-08-21T11:45:56.885Z,31.9
2022-08-21T11:51:37.261Z,32.3
2022-08-21T11:57:17.441Z,30.8
2022-08-21T12:03:02.939Z,31.2
2022-08-21T12:08:42.681Z,29.8
2022-08-21T12:14:23.113Z,29.8
2022-08-21T12:20:03.858Z,30.3
2022-08-21T12:25:44.303Z,29.4
2022-08-21T12:31:25.542Z,32.8
2022-08-21T12:37:07.229Z,30
2022-08-21T12:42:56.566Z,31.1
2022-08-21T12:48:40.692Z,31.9
2022-08-21T12:54:21.411Z,32.8
2022-08-21T13:00:01.849Z,31.9
2022-08-21T13:05:41.902Z,31.3
2022-08-21T13:11:25.272Z,29.6
2022-08-21T13:17:16.429Z,32.4
2022-08-21T13:23:11.796Z,32.8
2022-08-21T13:28:53.326Z,32.7
2022-08-21T13:34:33.401Z,32.2
2022-08-21T13:40:15.960Z,31.2
2022-08-21T13:45:56.973Z,29.4
2022-08-21T13:51:36.585Z,28.2
2022-08-21T13:57:18.350Z,26.6
2022-08-21T14:03:01.654Z,27
2022-08-21T14:08:44.041Z,26.5
2022-08-21T14:14:24.209Z,25.8
2022-08-21T14:20:04.549Z,26.6
2022-08-21T14:25:45.047Z,26.5
2022-08-21T14:31:26.245Z,26.5
2022-08-21T14:37:11.198Z,27.2
2022-08-21T14:42:54.003Z,27.2
2022-08-21T14:48:37.799Z,28.9
2022-08-21T14:54:18.694Z,29.9
2022-08-21T15:00:13.302Z,28.9
2022-08-21T15:05:53.462Z,28.1
2022-08-21T15:11:41.193Z,26.9
2022-08-21T15:17:26.544Z,26.7
2022-08-21T15:23:11.777Z,26.3
2022-08-21T15:28:56.098Z,26.3
2022-08-21T15:34:36.850Z,26.3
2022-08-21T15:45:19.242Z,25.9
2022-08-21T15:51:00.548Z,25.9
2022-08-21T15:56:41.925Z,26.1
2022-08-21T16:02:21.864Z,25.3
2022-08-21T16:08:02.452Z,25.8
2022-08-21T16:13:47.304Z,25.6
2022-08-21T16:19:28.180Z,25.3
2022-08-21T16:25:08.562Z,25.2
2022-08-21T16:30:49.499Z,24.8
2022-08-21T16:36:29.709Z,25
2022-08-21T16:42:11.807Z,25.1
2022-08-21T16:47:53.586Z,25
2022-08-21T16:53:33.912Z,24.9
2022-08-21T16:59:14.173Z,24.7
2022-08-21T17:04:58.021Z,24.6
2022-08-21T17:10:37.899Z,24.4
2022-08-21T17:16:18.424Z,24.4
2022-08-21T17:21:58.537Z,24.3
2022-08-21T17:27:42.105Z,24.1
2022-08-21T17:33:22.759Z,24
2022-08-21T17:39:03.011Z,23.9
2022-08-21T17:44:43.482Z,23.7
2022-08-21T17:50:26.518Z,23.5
2022-08-21T17:56:06.744Z,23.3
2022-08-21T18:01:48.587Z,23.1
2022-08-21T18:07:32.442Z,22.9
2022-08-21T18:13:13.851Z,22.8
2022-08-21T18:18:54.092Z,22.6
2022-08-21T18:24:40.838Z,22.4
2022-08-21T18:30:21.048Z,22.2
2022-08-21T18:36:04.449Z,22
2022-08-21T18:46:45.848Z,21.7
2022-08-21T18:52:31.689Z,21.6
2022-08-21T18:58:14.535Z,21.4
2022-08-21T19:03:55.766Z,21.1
2022-08-21T19:14:44.105Z,20.7
2022-08-21T19:20:26.808Z,20.6
2022-08-21T19:26:07.809Z,20.5
2022-08-21T19:31:48.353Z,20.4
2022-08-21T19:37:28.555Z,20.3
2022-08-21T19:43:15.446Z,20.2
2022-08-21T19:49:03.925Z,20.1
2022-08-21T19:54:47.211Z,20
2022-08-21T20:00:31.012Z,19.9
2022-08-21T20:06:24.638Z,19.9
2022-08-21T20:12:09.304Z,19.8
2022-08-21T20:17:50.877Z,19.7
2022-08-21T20:23:31.049Z,19.5
2022-08-21T20:29:24.036Z,19.6
2022-08-21T20:35:19.905Z,19.7
2022-08-21T20:41:09.989Z,19.7
2022-08-21T22:47:40.063Z,21
2022-08-21T22:53:19.902Z,19.9
2022-08-21T22:59:01.145Z,19.3
2022-08-21T23:04:41.170Z,18.8
2022-08-21T23:10:27.111Z,18.5
2022-08-21T23:16:15.564Z,18.2
2022-08-21T23:21:59.351Z,17.9
2022-08-21T23:27:44.521Z,17.7
2022-08-21T23:33:31.912Z,17.5
2022-08-21T23:39:20.389Z,17.3
2022-08-21T23:45:01.151Z,17.2
